Haines, Alaska
Current Conditions -  °F | °C
As of 12:03 PM on Tuesday 27 Jan 2015 (Local Time) from PAHN Reporting Station
Haze Haze  
Wind Chill:   Ceiling: Unl
Heat Index: 19°   Visibility: 4mi
Dew Point:   Wind: 17mph
Humidity: 50%   Direction: 300°WNW
Pressure: 30.05"   Gusts: 23mph
Location:  59.24°N, 135.45°W
Report Text: PAHN 272103Z AUTO 30015G20KT 4SM HZ FEW009 M07/M16 A3005 RMK AO2 T10721161 TSNO
Loading
Personal Weather Stations






























Interactive Weather Map New forecast layout! Learn more

10-Day Weather Forecast

Advertisements
Track Severe Weather on mobile